Time;durP1;ratioP1;P1;durP2;ratioP2;P2;SDS_P1;SDS_P2;PMS_P1;PMS_P2;Temp;Humidity;BMP_temperature;BMP_pressure;BME280_temperature;BME280_humidity;BME280_pressure;Samples;Min_cycle;Max_cycle;Signal;HPM_P1;HPM_P2
2022/07/02 00:01:49;;;;;;;8.40;7.45;;;;;;;25.73;51.15;99485.28;5055123;28;20025;-87
2022/07/02 00:04:19;;;;;;;8.30;7.55;;;;;;;25.32;51.03;99427.91;5055467;28;20035;-87
2022/07/02 00:06:47;;;;;;;8.20;7.57;;;;;;;25.33;51.06;99448.44;5051892;28;20409;-87
2022/07/02 00:09:13;;;;;;;11.10;8.05;;;;;;;26.00;51.04;99544.38;5051302;28;20025;-87
2022/07/02 00:11:40;;;;;;;8.57;7.95;;;;;;;26.04;51.10;99541.97;5051372;28;20504;-87
2022/07/02 00:14:06;;;;;;;8.95;8.05;;;;;;;25.71;51.21;99509.09;5050999;28;20481;-87
2022/07/02 00:16:33;;;;;;;8.35;7.65;;;;;;;25.88;51.19;99525.78;5051006;28;20146;-87
2022/07/02 00:18:59;;;;;;;8.48;7.68;;;;;;;24.46;50.79;99290.41;5050958;28;20036;-87
2022/07/02 00:21:25;;;;;;;9.35;7.80;;;;;;;26.01;51.12;99545.19;5051001;28;20067;-87
2022/07/02 00:23:51;;;;;;;8.70;7.75;;;;;;;25.57;51.09;99497.25;5052326;28;20060;-86
2022/07/02 00:26:23;;;;;;;10.80;8.35;;;;;;;24.75;50.88;99323.81;5050588;28;20033;-87
2022/07/02 00:28:56;;;;;;;8.40;7.55;;;;;;;25.49;50.62;99468.91;5050637;28;20437;-87
2022/07/02 00:31:22;;;;;;;8.95;8.05;;;;;;;25.20;50.69;99422.78;5050648;28;20040;-87
2022/07/02 00:33:49;;;;;;;7.88;7.18;;;;;;;25.88;50.78;99497.94;5050263;28;20029;-87
2022/07/02 00:36:21;;;;;;;8.55;7.72;;;;;;;25.39;50.42;99430.28;5050511;28;20486;-87
2022/07/02 00:38:49;;;;;;;8.30;7.53;;;;;;;25.56;50.53;99482.91;5051855;28;20029;-87
2022/07/02 00:41:16;;;;;;;9.18;7.93;;;;;;;25.62;50.64;99475.59;5050843;28;20029;-87
2022/07/02 00:43:42;;;;;;;9.02;7.68;;;;;;;24.88;50.67;99366.41;5050578;28;20032;-86
2022/07/02 00:46:07;;;;;;;9.63;7.40;;;;;;;25.47;50.85;99445.94;5050491;28;20025;-87
2022/07/02 00:48:34;;;;;;;8.70;7.32;;;;;;;25.71;51.02;99498.28;5050520;28;20036;-87
2022/07/02 00:51:00;;;;;;;10.20;7.25;;;;;;;25.78;50.81;99490.69;5051846;28;20543;-86
2022/07/02 00:53:25;;;;;;;8.90;8.00;;;;;;;25.69;50.78;99473.41;5051641;28;20100;-87
2022/07/02 00:55:57;;;;;;;10.40;7.43;;;;;;;25.91;50.89;99522.53;5050447;28;20575;-87
2022/07/02 00:58:24;;;;;;;8.25;7.28;;;;;;;25.17;50.97;99406.31;5050516;28;20033;-87
2022/07/02 01:00:50;;;;;;;9.93;7.80;;;;;;;25.26;50.99;99432.47;5050744;28;20032;-87
2022/07/02 01:03:18;;;;;;;11.57;7.80;;;;;;;25.29;51.27;99452.78;5051472;28;20028;-87
2022/07/02 01:05:45;;;;;;;8.43;7.50;;;;;;;25.28;51.43;99476.28;5054583;28;20037;-87
2022/07/02 01:10:58;;;;;;;8.45;7.60;;;;;;;25.10;51.99;99451.72;5055916;28;20079;-87
2022/07/02 01:13:25;;;;;;;8.10;7.40;;;;;;;25.07;52.02;99471.19;5055643;28;20477;-87
2022/07/02 01:15:51;;;;;;;8.25;7.45;;;;;;;25.28;51.99;99551.97;5059300;28;20024;-87
2022/07/02 01:18:17;;;;;;;8.63;7.78;;;;;;;25.17;52.28;99539.53;5074574;28;20069;-87
2022/07/02 01:20:46;;;;;;;8.40;7.70;;;;;;;25.04;52.21;99486.06;5057301;28;20024;-87
2022/07/02 01:23:11;;;;;;;9.35;8.10;;;;;;;24.74;52.85;99454.50;5057614;28;20025;-86
2022/07/02 01:25:37;;;;;;;10.23;8.13;;;;;;;24.64;53.12;99466.13;5057707;28;20043;-87
2022/07/02 01:28:02;;;;;;;8.68;7.82;;;;;;;24.97;53.28;99536.81;5055315;28;20029;-87
2022/07/02 01:30:28;;;;;;;8.70;7.75;;;;;;;24.85;53.28;99520.09;5053914;28;20545;-87
2022/07/02 01:32:54;;;;;;;8.95;7.38;;;;;;;24.56;53.71;99511.75;5053699;28;20464;-87
2022/07/02 01:35:20;;;;;;;8.10;7.30;;;;;;;24.39;53.94;99488.50;5055067;28;20094;-87
2022/07/02 01:37:45;;;;;;;8.80;7.38;;;;;;;23.48;53.91;99368.88;5057593;28;20088;-86
2022/07/02 01:40:11;;;;;;;9.07;7.90;;;;;;;23.77;53.68;99378.91;5057661;28;20556;-87
2022/07/02 01:42:37;;;;;;;8.30;7.55;;;;;;;24.06;53.90;99435.06;5053829;28;20498;-87
2022/07/02 01:45:04;;;;;;;8.50;7.45;;;;;;;24.44;54.18;99476.91;5053734;28;20094;-87
2022/07/02 01:47:29;;;;;;;10.13;7.38;;;;;;;24.76;54.01;99557.66;5056777;28;20035;-86
2022/07/02 01:49:54;;;;;;;8.48;7.28;;;;;;;24.26;53.93;99458.53;5075410;28;20021;-87
2022/07/02 01:52:20;;;;;;;8.13;7.32;;;;;;;24.38;54.05;99492.28;5059393;28;20035;-87
2022/07/02 01:54:46;;;;;;;8.43;7.72;;;;;;;24.42;54.12;99492.56;5055155;28;20028;-87
2022/07/02 01:57:12;;;;;;;10.77;7.40;;;;;;;24.97;53.91;99561.97;5053554;28;20083;-87
2022/07/02 01:59:38;;;;;;;9.35;6.70;;;;;;;25.02;54.00;99551.16;5054700;28;20032;-87
2022/07/02 02:02:04;;;;;;;11.50;7.82;;;;;;;24.53;53.60;99483.41;5054293;28;20421;-87
2022/07/02 02:04:30;;;;;;;8.57;7.13;;;;;;;24.71;53.83;99493.66;5052760;28;20406;-87
2022/07/02 02:06:56;;;;;;;7.82;6.53;;;;;;;24.20;54.02;99430.75;5054485;28;20033;-87
2022/07/02 02:09:21;;;;;;;7.85;6.88;;;;;;;24.96;53.97;99570.31;5054495;28;20493;-87
2022/07/02 02:11:47;;;;;;;8.55;7.18;;;;;;;24.80;54.05;99539.00;5053353;28;20095;-87
2022/07/02 02:14:12;;;;;;;8.20;6.93;;;;;;;24.07;54.12;99429.38;5054565;28;20059;-87
2022/07/02 02:16:39;;;;;;;10.20;7.40;;;;;;;24.97;54.02;99570.09;5053495;28;20028;-87
2022/07/02 02:19:05;;;;;;;8.43;7.43;;;;;;;24.94;54.06;99570.59;5053992;28;20433;-87
2022/07/02 02:21:30;;;;;;;9.40;6.72;;;;;;;23.82;54.10;99397.00;5052803;28;20108;-87
2022/07/02 02:23:58;;;;;;;7.78;7.03;;;;;;;24.86;54.16;99571.16;5052953;28;20477;-87
2022/07/02 02:26:23;;;;;;;9.65;6.90;;;;;;;24.76;54.39;99546.03;5053842;28;20528;-87
2022/07/02 02:28:49;;;;;;;11.23;7.50;;;;;;;24.68;54.14;99532.00;5053730;28;20028;-87
2022/07/02 02:31:14;;;;;;;8.00;7.20;;;;;;;24.31;53.93;99470.16;5054086;28;20029;-87
2022/07/02 02:33:41;;;;;;;11.60;7.25;;;;;;;24.74;54.30;99527.41;5054007;28;20033;-87
2022/07/02 02:36:07;;;;;;;9.60;7.18;;;;;;;24.46;53.90;99490.13;5052598;28;20070;-87
2022/07/02 02:38:36;;;;;;;8.57;6.70;;;;;;;24.78;53.64;99541.19;5052657;28;20025;-87
2022/07/02 02:41:05;;;;;;;11.10;6.97;;;;;;;24.48;53.69;99496.88;5052397;28;20017;-87
2022/07/02 02:43:31;;;;;;;10.10;6.72;;;;;;;24.34;53.49;99479.59;5052590;28;20423;-87
2022/07/02 02:45:57;;;;;;;7.53;6.90;;;;;;;24.49;53.45;99490.41;5052353;28;20048;-87
2022/07/02 02:48:22;;;;;;;7.72;6.53;;;;;;;24.83;53.41;99543.88;5052164;28;20489;-86
2022/07/02 02:50:48;;;;;;;10.10;7.45;;;;;;;24.65;53.41;99513.63;5052526;28;20397;-87
2022/07/02 02:53:13;;;;;;;12.35;7.18;;;;;;;24.35;53.52;99492.84;5053244;28;20489;-87
2022/07/02 02:55:39;;;;;;;7.97;7.18;;;;;;;24.42;53.53;99519.56;5052011;28;20053;-87
2022/07/02 02:58:04;;;;;;;7.85;6.85;;;;;;;24.71;53.24;99550.34;5052327;28;20032;-87
2022/07/02 03:00:29;;;;;;;9.30;7.40;;;;;;;24.27;53.32;99487.16;5053455;28;20059;-87
2022/07/02 03:02:56;;;;;;;8.75;6.97;;;;;;;24.53;53.63;99550.91;5053612;28;20459;-86
2022/07/02 03:05:22;;;;;;;8.57;7.57;;;;;;;24.83;53.83;99598.69;5052246;28;20108;-87
2022/07/02 03:07:47;;;;;;;10.00;7.30;;;;;;;24.05;53.91;99457.72;5053268;28;20445;-87
2022/07/02 03:10:13;;;;;;;8.23;7.32;;;;;;;24.39;53.98;99526.31;5053206;28;20562;-87
2022/07/02 03:12:38;;;;;;;8.23;7.40;;;;;;;24.58;54.24;99564.41;5052805;28;20024;-87
2022/07/02 03:15:05;;;;;;;7.72;7.13;;;;;;;23.84;53.96;99446.09;5052733;28;20025;-87
2022/07/02 03:17:30;;;;;;;9.60;7.10;;;;;;;24.52;54.13;99568.16;5051426;28;20100;-87
2022/07/02 03:19:56;;;;;;;10.13;7.85;;;;;;;24.54;54.45;99570.59;5051726;28;20104;-87
2022/07/02 03:22:21;;;;;;;8.20;7.40;;;;;;;24.17;54.18;99514.09;5052442;28;20024;-87
2022/07/02 03:24:47;;;;;;;7.68;6.93;;;;;;;24.63;54.07;99577.09;5063304;28;20027;-87
2022/07/02 03:27:12;;;;;;;7.82;7.03;;;;;;;24.80;53.67;99614.63;5068279;28;20055;-87
2022/07/02 03:29:37;;;;;;;8.80;7.10;;;;;;;24.19;53.65;99484.97;5056165;28;20017;-87
2022/07/02 03:32:03;;;;;;;8.55;7.57;;;;;;;24.78;53.51;99584.38;5052630;28;20112;-87
2022/07/02 03:34:29;;;;;;;8.10;6.07;;;;;;;24.87;53.33;99585.47;5052304;28;20497;-87
2022/07/02 03:36:54;;;;;;;7.43;6.57;;;;;;;24.99;53.10;99623.84;5053452;28;20520;-87
2022/07/02 03:39:20;;;;;;;8.73;6.60;;;;;;;24.60;53.28;99542.53;5051521;28;20564;-87
2022/07/02 03:41:45;;;;;;;6.82;6.28;;;;;;;24.42;52.98;99499.84;5051444;28;20020;-87
2022/07/02 03:44:10;;;;;;;6.85;6.05;;;;;;;24.25;52.75;99490.09;5051459;28;20027;-87
2022/07/02 03:46:36;;;;;;;8.80;6.13;;;;;;;24.66;52.93;99539.56;5051258;28;20020;-87
2022/07/02 03:49:01;;;;;;;8.80;6.40;;;;;;;25.08;52.55;99605.19;5051422;28;20035;-87
2022/07/02 03:51:27;;;;;;;9.15;6.30;;;;;;;25.10;52.54;99624.66;5051200;28;20107;-87
2022/07/02 03:53:52;;;;;;;8.50;6.15;;;;;;;24.60;52.90;99531.72;5051307;28;20028;-87
2022/07/02 03:56:18;;;;;;;8.57;6.32;;;;;;;24.87;52.98;99571.94;5050897;28;20056;-87
2022/07/02 03:58:43;;;;;;;12.07;6.47;;;;;;;24.86;52.56;99563.03;5052389;28;20033;-87
2022/07/02 04:01:09;;;;;;;9.32;6.03;;;;;;;24.68;52.76;99561.69;5051122;28;20028;-87
2022/07/02 04:03:35;;;;;;;8.07;6.40;;;;;;;25.04;52.90;99588.72;5053003;28;20025;-87
2022/07/02 04:06:02;;;;;;;8.43;6.43;;;;;;;25.22;52.76;99608.97;5053712;28;20021;-87
2022/07/02 04:08:27;;;;;;;9.38;7.05;;;;;;;23.84;52.84;99396.75;5050919;28;20020;-87
2022/07/02 04:10:52;;;;;;;8.15;6.22;;;;;;;25.15;52.66;99632.75;5052213;28;20488;-87
2022/07/02 04:13:18;;;;;;;7.22;6.18;;;;;;;25.11;52.50;99589.25;5052275;28;20459;-87
2022/07/02 04:15:43;;;;;;;7.32;6.35;;;;;;;25.14;52.55;99596.81;5050888;28;20481;-87
2022/07/02 04:18:09;;;;;;;8.63;6.63;;;;;;;25.12;52.77;99598.16;5050903;28;20029;-87
2022/07/02 04:20:34;;;;;;;8.43;6.70;;;;;;;25.07;52.59;99576.56;5051782;28;20077;-87
2022/07/02 04:23:00;;;;;;;8.20;6.40;;;;;;;24.64;52.72;99520.13;5050498;28;20405;-87
2022/07/02 04:25:25;;;;;;;10.43;6.50;;;;;;;24.83;52.68;99541.16;5050357;28;20029;-87
2022/07/02 04:27:51;;;;;;;9.02;6.38;;;;;;;25.20;52.54;99597.63;5051848;28;20075;-87
2022/07/02 04:30:16;;;;;;;9.02;6.63;;;;;;;25.01;52.64;99568.47;5050611;28;20400;-87
2022/07/02 04:32:41;;;;;;;10.75;6.47;;;;;;;24.91;52.65;99549.53;5052051;28;20044;-87
2022/07/02 04:35:07;;;;;;;7.45;6.65;;;;;;;25.54;52.32;99635.69;5050965;28;20449;-87
2022/07/02 04:37:33;;;;;;;7.45;6.68;;;;;;;25.25;52.81;99603.81;5050612;28;20083;-87
2022/07/02 04:39:59;;;;;;;7.00;6.18;;;;;;;25.15;52.86;99600.31;5054146;28;20083;-87
2022/07/02 04:42:24;;;;;;;6.82;5.88;;;;;;;25.37;52.48;99632.47;5055741;28;20028;-87
2022/07/02 04:44:50;;;;;;;7.40;6.45;;;;;;;25.33;52.69;99633.03;5054701;28;20424;-87
2022/07/02 04:47:15;;;;;;;9.63;6.70;;;;;;;24.76;52.71;99548.72;5054657;28;20036;-87
2022/07/02 04:49:41;;;;;;;7.22;5.90;;;;;;;24.93;52.56;99560.88;5054675;28;20024;-87
2022/07/02 04:52:06;;;;;;;8.73;6.18;;;;;;;24.77;52.53;99524.16;5054664;28;20025;-87
2022/07/02 04:54:32;;;;;;;9.02;5.68;;;;;;;24.76;52.39;99516.34;5055715;28;20048;-87
2022/07/02 04:56:58;;;;;;;8.48;5.93;;;;;;;24.73;52.09;99511.47;5055312;28;20513;-87
2022/07/02 04:59:23;;;;;;;6.57;4.90;;;;;;;24.88;51.44;99530.34;5055726;28;20459;-87
2022/07/02 05:01:48;;;;;;;8.60;4.65;;;;;;;24.69;51.48;99539.03;5054489;28;20017;-87
2022/07/02 05:04:14;;;;;;;7.53;4.90;;;;;;;25.14;51.00;99585.19;5054387;28;20025;-86
2022/07/02 05:06:39;;;;;;;5.30;4.80;;;;;;;25.63;50.77;99664.59;5054427;28;20082;-87
2022/07/02 05:09:05;;;;;;;6.45;4.80;;;;;;;25.06;50.80;99566.84;5054423;28;20054;-87
2022/07/02 05:11:31;;;;;;;5.68;5.00;;;;;;;25.23;50.78;99562.75;5054258;28;20489;-87
2022/07/02 05:13:56;;;;;;;6.57;4.80;;;;;;;25.27;50.59;99563.03;5057271;28;20028;-87
2022/07/02 05:16:21;;;;;;;6.35;4.95;;;;;;;25.80;50.49;99637.25;5070326;28;20509;-86
2022/07/02 05:18:47;;;;;;;8.48;5.00;;;;;;;26.01;50.52;99670.50;5071457;28;20073;-87
2022/07/02 05:21:13;;;;;;;5.55;4.55;;;;;;;25.88;49.77;99636.69;5057707;28;20497;-87
2022/07/02 05:23:38;;;;;;;8.07;4.90;;;;;;;25.67;49.50;99591.88;5058158;28;20017;-87
2022/07/02 05:26:04;;;;;;;4.50;4.10;;;;;;;26.10;49.70;99671.53;5054802;28;20028;-86
2022/07/02 05:28:29;;;;;;;5.57;4.60;;;;;;;26.03;49.22;99648.56;5054159;28;20031;-87
2022/07/02 05:30:55;;;;;;;6.80;4.78;;;;;;;25.96;49.11;99628.00;5054547;28;20047;-87
2022/07/02 05:33:20;;;;;;;6.07;4.78;;;;;;;26.02;48.96;99644.25;5055775;28;20412;-87
2022/07/02 05:35:46;;;;;;;10.40;5.63;;;;;;;25.64;48.81;99568.88;5070043;28;20023;-88
2022/07/02 05:38:12;;;;;;;7.43;5.00;;;;;;;26.01;48.83;99629.91;5079530;28;20017;-87
2022/07/02 05:40:37;;;;;;;5.82;5.22;;;;;;;25.91;49.03;99597.47;5070309;28;20417;-87
2022/07/02 05:43:02;;;;;;;7.95;5.45;;;;;;;26.21;49.13;99634.41;5058260;28;20059;-87
2022/07/02 05:45:28;;;;;;;10.82;5.05;;;;;;;26.40;49.08;99664.38;5056793;28;20025;-87
2022/07/02 05:47:54;;;;;;;5.57;4.68;;;;;;;26.22;49.35;99626.00;5056972;28;20108;-87
2022/07/02 05:50:19;;;;;;;8.13;5.40;;;;;;;26.53;48.98;99658.34;5055385;28;20024;-87
2022/07/02 05:52:45;;;;;;;7.53;4.80;;;;;;;26.33;48.86;99637.63;5053799;28;20401;-87
2022/07/02 05:55:11;;;;;;;7.55;4.72;;;;;;;25.96;48.67;99592.84;5053424;28;20121;-87
2022/07/02 05:57:37;;;;;;;7.50;5.43;;;;;;;26.32;48.85;99625.16;5053467;28;20512;-87
2022/07/02 06:00:04;;;;;;;7.97;5.47;;;;;;;26.40;49.06;99638.13;5054262;28;20028;-87
2022/07/02 06:02:30;;;;;;;9.18;5.28;;;;;;;26.37;48.92;99621.63;5054495;28;20029;-87
2022/07/02 06:04:55;;;;;;;5.07;4.60;;;;;;;25.90;48.65;99545.25;5052981;28;20117;-87
2022/07/02 06:07:38;;;;;;;6.57;4.95;;;;;;;25.93;49.08;99569.03;5052748;28;20036;-87
2022/07/02 06:10:05;;;;;;;6.72;4.70;;;;;;;26.45;49.03;99650.81;5054151;28;20095;-87
2022/07/02 06:12:31;;;;;;;11.07;5.68;;;;;;;26.47;48.86;99643.22;5052826;28;20025;-87
2022/07/02 06:14:56;;;;;;;6.32;5.05;;;;;;;26.37;49.03;99625.16;5052902;28;20433;-87
2022/07/02 06:17:22;;;;;;;9.48;5.72;;;;;;;26.29;48.62;99615.69;5052691;28;20025;-87
2022/07/02 06:19:48;;;;;;;5.75;4.78;;;;;;;26.24;48.91;99599.47;5052999;28;20408;-87
2022/07/02 06:22:14;;;;;;;7.68;5.25;;;;;;;26.80;48.35;99671.47;5056218;28;20453;-87
2022/07/02 06:24:40;;;;;;;6.05;5.45;;;;;;;26.10;48.34;99563.28;5062427;28;20052;-87
2022/07/02 06:27:05;;;;;;;7.32;5.78;;;;;;;26.81;48.38;99648.72;5054897;28;20032;-87
2022/07/02 06:29:31;;;;;;;10.52;5.57;;;;;;;26.13;48.26;99541.09;5052571;28;20435;-87
2022/07/02 06:31:57;;;;;;;6.95;5.38;;;;;;;26.67;48.27;99615.22;5052872;28;20083;-87
2022/07/02 06:34:22;;;;;;;6.05;4.68;;;;;;;26.33;47.25;99561.03;5053885;28;20032;-87
2022/07/02 06:36:48;;;;;;;5.60;4.88;;;;;;;26.76;47.03;99630.59;5053820;28;20519;-87
2022/07/02 06:39:13;;;;;;;5.38;4.93;;;;;;;26.69;46.92;99613.84;5052489;28;20420;-87
2022/07/02 06:44:23;;;;;;;5.45;4.93;;;;;;;26.72;46.41;99604.34;5053965;28;20056;-87
2022/07/02 06:46:48;;;;;;;7.30;4.65;;;;;;;26.81;46.20;99621.63;5052528;28;20472;-87
2022/07/02 06:49:14;;;;;;;5.53;4.90;;;;;;;26.97;45.83;99633.97;5052230;28;20029;-87
2022/07/02 06:51:39;;;;;;;5.22;4.50;;;;;;;27.47;45.81;99688.84;5053389;28;20021;-87
2022/07/02 06:54:05;;;;;;;6.93;4.95;;;;;;;27.08;45.83;99624.69;5053380;28;20025;-86
2022/07/02 06:56:36;;;;;;;5.43;4.60;;;;;;;27.60;45.65;99688.22;5051653;28;20081;-87
2022/07/02 06:59:05;;;;;;;6.50;4.93;;;;;;;27.32;45.09;99618.50;5051705;28;20029;-87
2022/07/02 07:01:31;;;;;;;6.53;5.05;;;;;;;27.73;45.17;99682.13;5051065;28;20017;-87
2022/07/02 07:03:56;;;;;;;8.85;5.25;;;;;;;27.37;45.56;99608.41;5051950;28;20021;-87
2022/07/02 07:06:23;;;;;;;6.80;5.28;;;;;;;27.72;45.00;99647.16;5051910;28;20489;-87
2022/07/02 07:08:52;;;;;;;5.60;4.93;;;;;;;27.69;44.89;99642.31;5052190;28;20583;-87
2022/07/02 07:11:20;;;;;;;8.90;6.13;;;;;;;27.91;44.82;99671.63;5051477;28;20025;-87
2022/07/02 07:13:45;;;;;;;6.32;5.55;;;;;;;27.07;45.22;99557.22;5053095;28;20025;-87
2022/07/02 07:16:10;;;;;;;6.32;5.72;;;;;;;27.68;44.83;99629.84;5052859;28;20494;-87
2022/07/02 07:18:36;;;;;;;6.03;4.82;;;;;;;27.35;43.90;99560.97;5052743;28;20112;-87
2022/07/02 07:21:01;;;;;;;7.05;5.38;;;;;;;28.10;43.86;99680.63;5051220;28;20013;-87
2022/07/02 07:23:27;;;;;;;7.82;5.10;;;;;;;27.64;44.21;99597.06;5052636;28;20021;-87
2022/07/02 07:25:52;;;;;;;7.22;4.90;;;;;;;27.99;44.21;99646.56;5052695;28;20026;-87
2022/07/02 07:28:18;;;;;;;7.85;4.63;;;;;;;27.15;44.03;99494.25;5051252;28;20032;-87
2022/07/02 07:30:43;;;;;;;7.80;5.93;;;;;;;27.85;43.38;99613.91;5051048;28;20017;-87
2022/07/02 07:33:09;;;;;;;6.00;5.40;;;;;;;27.97;43.54;99617.00;5052660;28;20021;-87
2022/07/02 07:35:34;;;;;;;6.75;5.20;;;;;;;28.28;43.33;99668.25;5051197;28;20409;-87
2022/07/02 07:38:02;;;;;;;6.35;5.20;;;;;;;28.27;43.26;99661.19;5051326;28;20497;-87
2022/07/02 07:40:28;;;;;;;5.63;4.70;;;;;;;28.60;42.29;99694.69;5051243;28;20017;-87
2022/07/02 07:42:53;;;;;;;5.40;4.90;;;;;;;27.20;42.05;99469.78;5051233;28;20386;-87
2022/07/02 07:45:19;;;;;;;7.28;4.90;;;;;;;28.18;41.69;99602.06;5052302;28;20028;-87
2022/07/02 07:47:44;;;;;;;5.28;4.75;;;;;;;28.06;41.32;99566.38;5051145;28;20024;-87
2022/07/02 07:50:10;;;;;;;6.70;5.10;;;;;;;28.84;41.52;99691.94;5052438;28;20021;-87
2022/07/02 07:52:35;;;;;;;7.88;4.80;;;;;;;28.59;41.64;99639.56;5052339;28;20078;-87
2022/07/02 07:55:01;;;;;;;6.97;5.00;;;;;;;28.12;41.12;99545.41;5051131;28;20082;-86
2022/07/02 07:57:26;;;;;;;4.75;4.32;;;;;;;28.42;40.91;99590.38;5050503;28;20068;-87
2022/07/02 07:59:52;;;;;;;7.40;4.72;;;;;;;28.80;40.67;99651.72;5050796;28;21185;-87
2022/07/02 08:02:17;;;;;;;5.25;4.75;;;;;;;28.45;40.47;99582.44;5050822;28;20025;-87
2022/07/02 08:04:43;;;;;;;7.30;4.38;;;;;;;29.15;40.64;99692.28;5051114;28;20013;-87
2022/07/02 08:07:08;;;;;;;5.97;4.57;;;;;;;28.32;40.32;99547.06;5050987;28;20078;-86
2022/07/02 08:09:34;;;;;;;4.72;4.32;;;;;;;28.46;40.07;99565.03;5052672;28;20096;-87
2022/07/02 08:11:59;;;;;;;8.48;4.75;;;;;;;28.74;39.91;99584.16;5051459;28;20501;-87
2022/07/02 08:14:25;;;;;;;5.30;4.80;;;;;;;29.46;40.31;99687.16;5051635;28;20083;-87
2022/07/02 08:16:50;;;;;;;6.63;4.97;;;;;;;29.27;39.74;99654.53;5051247;28;20027;-87
2022/07/02 08:19:16;;;;;;;5.32;4.60;;;;;;;29.21;39.63;99613.03;5051103;28;20528;-87
2022/07/02 08:21:41;;;;;;;6.80;4.55;;;;;;;29.64;39.86;99672.66;5051302;28;20207;-87
2022/07/02 08:24:07;;;;;;;5.78;4.47;;;;;;;29.60;39.08;99658.06;5052129;28;20021;-87
2022/07/02 08:26:32;;;;;;;6.20;4.78;;;;;;;29.10;38.97;99566.19;5050803;28;20033;-87
2022/07/02 08:28:58;;;;;;;5.40;4.50;;;;;;;29.48;39.15;99625.91;5052701;28;20078;-87
2022/07/02 08:31:23;;;;;;;7.88;5.10;;;;;;;29.45;38.79;99617.53;5053197;28;20143;-87
2022/07/02 08:33:49;;;;;;;8.77;5.20;;;;;;;29.62;38.96;99604.13;5053381;28;20524;-87
2022/07/02 08:36:14;;;;;;;8.15;5.28;;;;;;;30.03;38.63;99662.16;5051096;28;20029;-87
2022/07/02 08:38:40;;;;;;;6.63;5.22;;;;;;;30.27;38.89;99667.38;5052024;28;20044;-86
2022/07/02 08:41:07;;;;;;;9.27;6.40;;;;;;;30.28;38.86;99660.81;5051123;28;20075;-86
2022/07/02 08:43:34;;;;;;;9.57;5.93;;;;;;;30.05;38.67;99621.00;5050959;28;20025;-87
2022/07/02 08:46:02;;;;;;;6.20;5.47;;;;;;;30.59;38.85;99695.63;5050901;28;20175;-87
2022/07/02 08:48:28;;;;;;;6.47;5.72;;;;;;;30.74;38.68;99692.53;5051093;28;20029;-87
2022/07/02 08:50:56;;;;;;;7.85;6.13;;;;;;;30.41;38.80;99650.19;5050872;28;20461;-87
2022/07/02 08:53:21;;;;;;;8.43;6.13;;;;;;;29.89;38.25;99563.31;5050867;28;20142;-87
2022/07/02 08:55:49;;;;;;;6.18;5.18;;;;;;;30.87;38.60;99712.69;5051992;28;20061;-87
2022/07/02 08:58:16;;;;;;;9.10;5.93;;;;;;;30.61;38.31;99652.50;5064877;28;20064;-87
2022/07/02 09:00:42;;;;;;;7.22;5.47;;;;;;;30.85;38.36;99677.56;5060869;28;20580;-87
2022/07/02 09:03:09;;;;;;;9.63;6.75;;;;;;;30.71;38.32;99629.66;5052581;28;20417;-87
2022/07/02 09:05:37;;;;;;;7.90;6.72;;;;;;;30.81;38.24;99643.03;5051501;28;20086;-87
2022/07/02 09:08:05;;;;;;;9.82;8.82;;;;;;;31.38;37.97;99706.88;5050923;28;20032;-87
2022/07/02 09:10:31;;;;;;;9.13;6.43;;;;;;;31.11;37.98;99628.66;5052274;28;20021;-87
2022/07/02 09:12:58;;;;;;;9.45;6.57;;;;;;;31.33;37.29;99660.59;5051023;28;20170;-87
2022/07/02 09:15:24;;;;;;;8.32;6.10;;;;;;;31.66;37.27;99685.66;5050309;28;20029;-86
2022/07/02 09:17:50;;;;;;;6.50;5.75;;;;;;;31.67;37.03;99672.81;5051628;28;20044;-87
2022/07/02 09:20:16;;;;;;;6.80;5.97;;;;;;;31.37;36.45;99600.75;5050394;28;20032;-86
2022/07/02 09:22:50;;;;;;;7.53;5.97;;;;;;;32.08;36.30;99703.38;5051366;28;20032;-87
2022/07/02 09:25:21;;;;;;;8.00;5.80;;;;;;;32.25;36.20;99697.19;5053979;28;20026;-87
2022/07/02 09:27:57;;;;;;;6.63;5.93;;;;;;;32.08;35.44;99667.88;5053946;28;20100;-86
2022/07/02 09:30:23;;;;;;;8.20;6.07;;;;;;;32.60;35.17;99708.19;5053851;28;20017;-87
2022/07/02 09:32:48;;;;;;;7.70;5.20;;;;;;;32.13;34.27;99593.16;5056337;28;20113;-87
2022/07/02 09:35:22;;;;;;;6.85;4.50;;;;;;;32.74;33.91;99652.25;5055509;28;20501;-87
2022/07/02 09:37:50;;;;;;;6.38;4.88;;;;;;;32.84;33.48;99641.00;5053697;28;20055;-86
2022/07/02 09:40:17;;;;;;;7.28;5.65;;;;;;;33.34;33.41;99695.19;5053346;28;20119;-87
2022/07/02 09:42:48;;;;;;;5.40;4.68;;;;;;;33.52;31.81;99695.16;5053357;28;20092;-87
2022/07/02 09:45:15;;;;;;;6.63;4.95;;;;;;;33.72;31.28;99706.22;5054379;28;20032;-86
2022/07/02 09:47:49;;;;;;;4.97;4.47;;;;;;;33.78;30.83;99704.91;5053307;28;20116;-87
2022/07/02 09:50:22;;;;;;;7.18;5.13;;;;;;;33.78;30.66;99668.47;5053791;28;20108;-87
2022/07/02 09:52:48;;;;;;;7.50;4.40;;;;;;;34.22;29.88;99696.50;5053462;28;20505;-86
2022/07/02 09:55:25;;;;;;;7.80;6.75;;;;;;;34.03;29.48;99653.88;5044341;28;20045;-87
2022/07/02 09:57:55;;;;;;;4.35;3.97;;;;;;;33.84;29.58;99590.50;5054088;28;20048;-87
2022/07/02 10:00:23;;;;;;;6.70;4.90;;;;;;;33.55;29.35;99542.00;5054278;28;20029;-87
2022/07/02 10:02:56;;;;;;;7.20;4.50;;;;;;;34.59;29.29;99681.13;5054762;28;20100;-86
2022/07/02 10:05:28;;;;;;;7.00;4.93;;;;;;;33.87;29.11;99546.00;5052903;28;20498;-87
2022/07/02 10:07:55;;;;;;;5.18;4.32;;;;;;;34.91;29.02;99685.88;5054047;28;20050;-87
2022/07/02 10:10:38;;;;;;;6.53;5.07;;;;;;;35.31;28.68;99693.59;5054389;28;20017;-87
2022/07/02 10:13:05;;;;;;;5.07;4.38;;;;;;;35.44;28.15;99683.47;5054396;28;20021;-86
2022/07/02 10:15:33;;;;;;;7.35;4.53;;;;;;;35.34;28.12;99693.75;5053830;28;20058;-86
2022/07/02 10:18:03;;;;;;;6.20;4.57;;;;;;;35.37;27.95;99681.28;5052492;28;20116;-86
2022/07/02 10:20:30;;;;;;;6.57;4.55;;;;;;;35.49;27.96;99680.50;5053003;28;20064;-86
2022/07/02 10:23:14;;;;;;;5.25;4.38;;;;;;;35.58;27.63;99675.72;5052402;28;20031;-86
2022/07/02 10:25:40;;;;;;;5.22;4.28;;;;;;;35.20;27.72;99596.34;5052299;28;20393;-86
2022/07/02 10:28:05;;;;;;;4.82;4.43;;;;;;;35.30;27.46;99598.66;5053230;28;20031;-86
2022/07/02 10:30:32;;;;;;;5.50;4.80;;;;;;;35.89;27.25;99670.53;5053895;28;20036;-86
2022/07/02 10:33:08;;;;;;;5.78;3.95;;;;;;;35.45;26.72;99594.47;5053623;28;20025;-86
2022/07/02 10:35:34;;;;;;;4.60;3.83;;;;;;;35.59;26.04;99590.22;5052872;28;20428;-86
2022/07/02 10:38:00;;;;;;;4.82;4.43;;;;;;;35.18;25.71;99541.78;5051792;28;20112;-87
2022/07/02 10:40:27;;;;;;;5.63;3.72;;;;;;;36.14;25.13;99665.00;5053442;28;20052;-86
2022/07/02 10:42:53;;;;;;;7.32;4.53;;;;;;;35.32;25.20;99512.09;5053492;28;20021;-87
2022/07/02 10:45:20;;;;;;;6.68;4.35;;;;;;;36.69;24.97;99667.13;5053509;28;20058;-87
2022/07/02 10:47:58;;;;;;;4.63;3.90;;;;;;;36.83;24.69;99667.53;5055087;28;20036;-86
2022/07/02 10:50:38;;;;;;;3.70;3.40;;;;;;;36.94;24.51;99667.84;5055673;28;20021;-86
2022/07/02 10:53:10;;;;;;;4.20;3.90;;;;;;;36.53;24.47;99569.97;5053651;28;20021;-87
2022/07/02 10:55:37;;;;;;;7.30;3.95;;;;;;;36.62;24.77;99580.81;5052861;28;20045;-86
2022/07/02 10:58:04;;;;;;;5.22;4.72;;;;;;;35.60;24.25;99435.28;5053801;28;20021;-86
2022/07/02 11:00:33;;;;;;;4.78;4.22;;;;;;;36.54;23.98;99555.06;5052185;28;20029;-86
2022/07/02 11:03:09;;;;;;;5.80;5.07;;;;;;;37.12;24.51;99618.78;5052033;28;20513;-86
2022/07/02 11:05:35;;;;;;;11.32;4.45;;;;;;;37.17;23.44;99611.06;5052150;28;20032;-86
2022/07/02 11:08:00;;;;;;;4.13;3.72;;;;;;;37.01;22.97;99554.38;5053578;28;20025;-87
2022/07/02 11:10:27;;;;;;;4.53;3.30;;;;;;;37.49;22.67;99613.88;5052474;28;20021;-86
2022/07/02 11:12:59;;;;;;;5.47;4.00;;;;;;;37.56;22.70;99622.31;5052473;28;20058;-86
2022/07/02 11:15:35;;;;;;;5.35;3.42;;;;;;;37.48;22.45;99587.47;5053067;28;20104;-86
2022/07/02 11:18:03;;;;;;;3.50;3.25;;;;;;;37.87;22.24;99637.22;5054518;28;20052;-86
2022/07/02 11:20:30;;;;;;;4.80;3.58;;;;;;;37.27;22.11;99554.72;5056154;28;20029;-87
2022/07/02 11:22:56;;;;;;;4.93;4.50;;;;;;;38.00;22.60;99649.78;5077319;28;20101;-86
2022/07/02 11:25:22;;;;;;;3.70;3.40;;;;;;;37.82;22.09;99611.53;5076283;28;20025;-86
2022/07/02 11:27:55;;;;;;;4.60;3.60;;;;;;;38.10;22.42;99627.16;5063809;28;20056;-86
2022/07/02 11:30:27;;;;;;;4.20;3.67;;;;;;;38.55;22.39;99647.84;5054795;28;20021;-86
2022/07/02 11:32:53;;;;;;;6.53;4.43;;;;;;;38.70;22.58;99649.78;5056010;28;20024;-86
2022/07/02 11:35:18;;;;;;;4.50;4.10;;;;;;;37.74;22.48;99499.56;5055671;28;20158;-87